sensor_id;sensor_type;location;lat;lon;timestamp;pressure;altitude;pressure_sealevel;temperature;humidity
22550;BME280;11441;57.164;-2.120;2023-05-03T00:00:55;102343.59;;;7.92;100.00
22550;BME280;11441;57.164;-2.120;2023-05-03T00:03:27;102332.41;;;7.88;100.00
22550;BME280;11441;57.164;-2.120;2023-05-03T00:05:54;102325.81;;;7.89;100.00
22550;BME280;11441;57.164;-2.120;2023-05-03T00:08:21;102341.75;;;7.87;100.00
22550;BME280;11441;57.164;-2.120;2023-05-03T00:11:43;102340.72;;;7.83;100.00
22550;BME280;11441;57.164;-2.120;2023-05-03T00:14:10;102331.09;;;7.86;100.00
22550;BME280;11441;57.164;-2.120;2023-05-03T00:16:37;102328.72;;;7.79;100.00
22550;BME280;11441;57.164;-2.120;2023-05-03T00:19:03;102335.06;;;7.74;100.00
22550;BME280;11441;57.164;-2.120;2023-05-03T00:21:30;102334.25;;;7.93;100.00
22550;BME280;11441;57.164;-2.120;2023-05-03T00:23:57;102332.56;;;7.78;100.00
22550;BME280;11441;57.164;-2.120;2023-05-03T00:26:24;102333.75;;;7.91;100.00
22550;BME280;11441;57.164;-2.120;2023-05-03T00:28:52;102344.03;;;7.80;100.00
22550;BME280;11441;57.164;-2.120;2023-05-03T00:31:18;102347.53;;;7.86;100.00
22550;BME280;11441;57.164;-2.120;2023-05-03T00:33:45;102332.41;;;7.69;100.00
22550;BME280;11441;57.164;-2.120;2023-05-03T00:36:13;102338.56;;;7.61;100.00
22550;BME280;11441;57.164;-2.120;2023-05-03T00:38:41;102335.06;;;7.55;100.00
22550;BME280;11441;57.164;-2.120;2023-05-03T00:41:09;102331.50;;;7.55;100.00
22550;BME280;11441;57.164;-2.120;2023-05-03T00:43:36;102324.38;;;7.35;100.00
22550;BME280;11441;57.164;-2.120;2023-05-03T00:46:05;102324.28;;;7.40;100.00
22550;BME280;11441;57.164;-2.120;2023-05-03T00:49:01;102329.56;;;7.55;100.00
22550;BME280;11441;57.164;-2.120;2023-05-03T00:51:28;102317.41;;;7.43;100.00
22550;BME280;11441;57.164;-2.120;2023-05-03T00:53:55;102326.03;;;7.55;100.00
22550;BME280;11441;57.164;-2.120;2023-05-03T00:56:22;102319.16;;;7.58;100.00
22550;BME280;11441;57.164;-2.120;2023-05-03T00:59:17;102318.38;;;7.52;100.00
22550;BME280;11441;57.164;-2.120;2023-05-03T01:02:02;102310.66;;;7.54;100.00
22550;BME280;11441;57.164;-2.120;2023-05-03T01:04:30;102321.63;;;7.54;100.00
22550;BME280;11441;57.164;-2.120;2023-05-03T01:07:24;102309.84;;;7.53;100.00
22550;BME280;11441;57.164;-2.120;2023-05-03T01:10:25;102315.69;;;7.47;100.00
22550;BME280;11441;57.164;-2.120;2023-05-03T01:15:47;102308.09;;;7.44;100.00
22550;BME280;11441;57.164;-2.120;2023-05-03T01:18:19;102307.53;;;7.42;100.00
22550;BME280;11441;57.164;-2.120;2023-05-03T01:20:50;102306.28;;;7.34;100.00
22550;BME280;11441;57.164;-2.120;2023-05-03T01:23:32;102306.09;;;7.49;100.00
22550;BME280;11441;57.164;-2.120;2023-05-03T01:26:22;102308.38;;;7.42;100.00
22550;BME280;11441;57.164;-2.120;2023-05-03T01:28:50;102302.75;;;7.33;100.00
22550;BME280;11441;57.164;-2.120;2023-05-03T01:31:43;102303.84;;;7.32;100.00
22550;BME280;11441;57.164;-2.120;2023-05-03T01:37:09;102301.41;;;7.07;100.00
22550;BME280;11441;57.164;-2.120;2023-05-03T01:40:01;102287.34;;;6.89;100.00
22550;BME280;11441;57.164;-2.120;2023-05-03T01:42:35;102287.47;;;7.03;100.00
22550;BME280;11441;57.164;-2.120;2023-05-03T01:45:03;102305.59;;;7.23;100.00
22550;BME280;11441;57.164;-2.120;2023-05-03T01:47:30;102292.72;;;7.24;100.00
22550;BME280;11441;57.164;-2.120;2023-05-03T01:49:58;102308.06;;;7.25;100.00
22550;BME280;11441;57.164;-2.120;2023-05-03T01:52:24;102293.63;;;7.14;100.00
22550;BME280;11441;57.164;-2.120;2023-05-03T01:54:51;102292.59;;;7.10;100.00
22550;BME280;11441;57.164;-2.120;2023-05-03T01:57:18;102290.66;;;7.10;100.00
22550;BME280;11441;57.164;-2.120;2023-05-03T01:59:45;102299.13;;;7.14;100.00
22550;BME280;11441;57.164;-2.120;2023-05-03T02:02:11;102298.66;;;7.07;100.00
22550;BME280;11441;57.164;-2.120;2023-05-03T02:04:39;102300.13;;;6.99;100.00
22550;BME280;11441;57.164;-2.120;2023-05-03T02:07:06;102295.50;;;6.94;100.00
22550;BME280;11441;57.164;-2.120;2023-05-03T02:09:33;102303.63;;;7.05;100.00
22550;BME280;11441;57.164;-2.120;2023-05-03T02:12:00;102306.41;;;6.99;100.00
22550;BME280;11441;57.164;-2.120;2023-05-03T02:14:27;102301.47;;;7.02;100.00
22550;BME280;11441;57.164;-2.120;2023-05-03T02:17:12;102296.75;;;7.07;100.00
22550;BME280;11441;57.164;-2.120;2023-05-03T02:19:39;102303.63;;;7.05;100.00
22550;BME280;11441;57.164;-2.120;2023-05-03T02:22:06;102303.63;;;7.05;100.00
22550;BME280;11441;57.164;-2.120;2023-05-03T02:24:33;102296.94;;;6.92;100.00
22550;BME280;11441;57.164;-2.120;2023-05-03T02:27:02;102294.47;;;6.90;100.00
22550;BME280;11441;57.164;-2.120;2023-05-03T02:29:32;102299.84;;;7.01;100.00
22550;BME280;11441;57.164;-2.120;2023-05-03T02:32:01;102297.22;;;6.90;100.00
22550;BME280;11441;57.164;-2.120;2023-05-03T02:34:49;102295.34;;;7.10;100.00
22550;BME280;11441;57.164;-2.120;2023-05-03T02:37:19;102292.59;;;7.10;100.00
22550;BME280;11441;57.164;-2.120;2023-05-03T02:39:47;102290.66;;;7.10;100.00
22550;BME280;11441;57.164;-2.120;2023-05-03T02:42:15;102284.38;;;7.10;100.00
22550;BME280;11441;57.164;-2.120;2023-05-03T02:44:43;102276.56;;;6.98;100.00
22550;BME280;11441;57.164;-2.120;2023-05-03T02:47:12;102273.34;;;7.15;100.00
22550;BME280;11441;57.164;-2.120;2023-05-03T02:49:40;102272.25;;;7.16;100.00
22550;BME280;11441;57.164;-2.120;2023-05-03T02:52:08;102274.41;;;7.19;100.00
22550;BME280;11441;57.164;-2.120;2023-05-03T02:54:35;102268.47;;;7.12;100.00
22550;BME280;11441;57.164;-2.120;2023-05-03T02:57:20;102269.13;;;7.04;100.00
22550;BME280;11441;57.164;-2.120;2023-05-03T02:59:47;102271.09;;;6.98;100.00
22550;BME280;11441;57.164;-2.120;2023-05-03T03:02:14;102271.88;;;7.04;100.00
22550;BME280;11441;57.164;-2.120;2023-05-03T03:04:41;102269.13;;;7.04;100.00
22550;BME280;11441;57.164;-2.120;2023-05-03T03:07:08;102264.47;;;7.04;100.00
22550;BME280;11441;57.164;-2.120;2023-05-03T03:09:35;102267.47;;;7.03;100.00
22550;BME280;11441;57.164;-2.120;2023-05-03T03:12:21;102272.50;;;6.95;100.00
22550;BME280;11441;57.164;-2.120;2023-05-03T03:14:48;102278.66;;;6.82;100.00
22550;BME280;11441;57.164;-2.120;2023-05-03T03:17:14;102272.84;;;6.89;100.00
22550;BME280;11441;57.164;-2.120;2023-05-03T03:19:42;102273.13;;;6.87;100.00
22550;BME280;11441;57.164;-2.120;2023-05-03T03:22:09;102264.22;;;7.01;100.00
22550;BME280;11441;57.164;-2.120;2023-05-03T03:24:53;102269.88;;;7.09;100.00
22550;BME280;11441;57.164;-2.120;2023-05-03T03:27:39;102272.03;;;7.12;100.00
22550;BME280;11441;57.164;-2.120;2023-05-03T03:30:07;102272.91;;;7.08;100.00
22550;BME280;11441;57.164;-2.120;2023-05-03T03:32:43;102262.59;;;6.99;100.00
22550;BME280;11441;57.164;-2.120;2023-05-03T03:35:15;102266.00;;;7.10;100.00
22550;BME280;11441;57.164;-2.120;2023-05-03T03:37:42;102267.13;;;7.09;100.00
22550;BME280;11441;57.164;-2.120;2023-05-03T03:40:10;102253.50;;;7.04;100.00
22550;BME280;11441;57.164;-2.120;2023-05-03T03:42:38;102265.78;;;7.07;100.00
22550;BME280;11441;57.164;-2.120;2023-05-03T03:45:06;102263.66;;;7.04;100.00
22550;BME280;11441;57.164;-2.120;2023-05-03T03:47:32;102262.69;;;7.13;100.00
22550;BME280;11441;57.164;-2.120;2023-05-03T03:50:18;102261.06;;;7.12;100.00
22550;BME280;11441;57.164;-2.120;2023-05-03T03:52:45;102251.63;;;6.99;100.00
22550;BME280;11441;57.164;-2.120;2023-05-03T03:55:12;102264.91;;;7.11;100.00
22550;BME280;11441;57.164;-2.120;2023-05-03T03:57:39;102261.88;;;7.13;100.00
22550;BME280;11441;57.164;-2.120;2023-05-03T04:00:07;102259.78;;;7.05;100.00
22550;BME280;11441;57.164;-2.120;2023-05-03T04:02:37;102256.75;;;7.06;100.00
22550;BME280;11441;57.164;-2.120;2023-05-03T04:05:09;102246.94;;;7.00;100.00
22550;BME280;11441;57.164;-2.120;2023-05-03T04:07:36;102257.78;;;7.10;100.00
22550;BME280;11441;57.164;-2.120;2023-05-03T04:10:23;102258.34;;;7.12;100.00
22550;BME280;11441;57.164;-2.120;2023-05-03T04:12:50;102259.94;;;7.13;100.00
22550;BME280;11441;57.164;-2.120;2023-05-03T04:15:17;102263.03;;;7.07;100.00
22550;BME280;11441;57.164;-2.120;2023-05-03T04:17:45;102273.28;;;7.20;100.00
22550;BME280;11441;57.164;-2.120;2023-05-03T04:20:12;102271.44;;;7.15;100.00
22550;BME280;11441;57.164;-2.120;2023-05-03T04:22:44;102262.16;;;7.11;100.00
22550;BME280;11441;57.164;-2.120;2023-05-03T04:25:13;102264.28;;;7.20;100.00
22550;BME280;11441;57.164;-2.120;2023-05-03T04:27:49;102261.88;;;7.13;100.00
22550;BME280;11441;57.164;-2.120;2023-05-03T04:30:18;102267.53;;;6.97;100.00
22550;BME280;11441;57.164;-2.120;2023-05-03T04:32:50;102256.25;;;7.04;100.00
22550;BME280;11441;57.164;-2.120;2023-05-03T04:35:21;102260.59;;;7.05;100.00
22550;BME280;11441;57.164;-2.120;2023-05-03T04:37:48;102266.06;;;7.05;100.00
22550;BME280;11441;57.164;-2.120;2023-05-03T04:40:19;102261.66;;;7.09;100.00
22550;BME280;11441;57.164;-2.120;2023-05-03T04:42:55;102261.47;;;7.25;100.00
22550;BME280;11441;57.164;-2.120;2023-05-03T04:45:23;102263.75;;;7.17;100.00
22550;BME280;11441;57.164;-2.120;2023-05-03T04:47:50;102265.88;;;7.21;100.00
22550;BME280;11441;57.164;-2.120;2023-05-03T04:50:17;102272.19;;;7.21;100.00
22550;BME280;11441;57.164;-2.120;2023-05-03T04:52:48;102282.72;;;7.33;100.00
22550;BME280;11441;57.164;-2.120;2023-05-03T04:55:16;102281.78;;;7.43;100.00
22550;BME280;11441;57.164;-2.120;2023-05-03T04:57:43;102288.34;;;7.42;100.00
22550;BME280;11441;57.164;-2.120;2023-05-03T05:00:12;102289.13;;;7.47;100.00
22550;BME280;11441;57.164;-2.120;2023-05-03T05:02:44;102283.09;;;7.45;100.00
22550;BME280;11441;57.164;-2.120;2023-05-03T05:05:12;102286.53;;;7.56;100.00
22550;BME280;11441;57.164;-2.120;2023-05-03T05:07:40;102289.56;;;7.54;100.00
22550;BME280;11441;57.164;-2.120;2023-05-03T05:10:25;102286.31;;;7.52;100.00
22550;BME280;11441;57.164;-2.120;2023-05-03T05:12:54;102290.44;;;7.69;100.00
22550;BME280;11441;57.164;-2.120;2023-05-03T05:15:21;102290.16;;;7.70;100.00
22550;BME280;11441;57.164;-2.120;2023-05-03T05:17:49;102284.44;;;7.67;100.00
22550;BME280;11441;57.164;-2.120;2023-05-03T05:20:18;102295.56;;;7.76;100.00
22550;BME280;11441;57.164;-2.120;2023-05-03T05:22:48;102297.19;;;7.77;100.00
22550;BME280;11441;57.164;-2.120;2023-05-03T05:25:15;102297.88;;;7.87;100.00
22550;BME280;11441;57.164;-2.120;2023-05-03T05:27:42;102294.44;;;7.77;100.00
22550;BME280;11441;57.164;-2.120;2023-05-03T05:30:09;102289.72;;;7.82;100.00
22550;BME280;11441;57.164;-2.120;2023-05-03T05:32:39;102296.16;;;7.91;100.00
22550;BME280;11441;57.164;-2.120;2023-05-03T05:35:24;102287.19;;;7.86;100.00
22550;BME280;11441;57.164;-2.120;2023-05-03T05:37:51;102288.44;;;7.93;100.00
22550;BME280;11441;57.164;-2.120;2023-05-03T05:40:37;102298.25;;;7.81;100.00
22550;BME280;11441;57.164;-2.120;2023-05-03T05:43:04;102294.97;;;7.79;100.00
22550;BME280;11441;57.164;-2.120;2023-05-03T05:45:34;102295.34;;;7.91;100.00
22550;BME280;11441;57.164;-2.120;2023-05-03T05:48:02;102295.84;;;7.93;100.00
22550;BME280;11441;57.164;-2.120;2023-05-03T05:50:31;102292.38;;;8.06;100.00
22550;BME280;11441;57.164;-2.120;2023-05-03T05:53:01;102290.41;;;8.26;100.00
22550;BME280;11441;57.164;-2.120;2023-05-03T05:55:34;102299.00;;;8.19;100.00
22550;BME280;11441;57.164;-2.120;2023-05-03T05:58:01;102296.97;;;8.25;100.00
22550;BME280;11441;57.164;-2.120;2023-05-03T06:00:36;102297.78;;;8.25;100.00
22550;BME280;11441;57.164;-2.120;2023-05-03T06:03:04;102289.38;;;8.36;100.00
22550;BME280;11441;57.164;-2.120;2023-05-03T06:05:31;102303.38;;;8.20;100.00
22550;BME280;11441;57.164;-2.120;2023-05-03T06:07:57;102289.47;;;8.30;100.00
22550;BME280;11441;57.164;-2.120;2023-05-03T06:10:25;102289.56;;;8.25;100.00
22550;BME280;11441;57.164;-2.120;2023-05-03T06:12:54;102293.69;;;8.42;100.00
22550;BME280;11441;57.164;-2.120;2023-05-03T06:15:23;102291.91;;;8.32;100.00
22550;BME280;11441;57.164;-2.120;2023-05-03T06:17:52;102295.03;;;8.44;100.00
22550;BME280;11441;57.164;-2.120;2023-05-03T06:20:19;102294.16;;;8.30;100.00
22550;BME280;11441;57.164;-2.120;2023-05-03T06:22:47;102296.72;;;8.40;100.00
22550;BME280;11441;57.164;-2.120;2023-05-03T06:25:14;102296.66;;;8.45;100.00
22550;BME280;11441;57.164;-2.120;2023-05-03T06:27:46;102297.91;;;8.53;100.00
22550;BME280;11441;57.164;-2.120;2023-05-03T06:30:14;102292.44;;;8.67;100.00
22550;BME280;11441;57.164;-2.120;2023-05-03T06:32:41;102293.25;;;8.67;100.00
22550;BME280;11441;57.164;-2.120;2023-05-03T06:35:10;102291.53;;;8.85;100.00
22550;BME280;11441;57.164;-2.120;2023-05-03T06:37:39;102297.75;;;8.91;100.00
22550;BME280;11441;57.164;-2.120;2023-05-03T06:40:06;102296.13;;;8.76;100.00
22550;BME280;11441;57.164;-2.120;2023-05-03T06:42:50;102300.59;;;8.86;100.00
22550;BME280;11441;57.164;-2.120;2023-05-03T06:45:41;102298.66;;;8.73;100.00
22550;BME280;11441;57.164;-2.120;2023-05-03T06:48:08;102296.53;;;8.83;100.00
22550;BME280;11441;57.164;-2.120;2023-05-03T06:50:37;102302.34;;;8.96;100.00
22550;BME280;11441;57.164;-2.120;2023-05-03T06:53:04;102299.59;;;9.10;100.00
22550;BME280;11441;57.164;-2.120;2023-05-03T06:55:31;102297.44;;;9.06;100.00
22550;BME280;11441;57.164;-2.120;2023-05-03T06:57:58;102291.44;;;9.04;100.00
22550;BME280;11441;57.164;-2.120;2023-05-03T07:00:25;102299.69;;;9.18;100.00
22550;BME280;11441;57.164;-2.120;2023-05-03T07:02:52;102299.78;;;8.99;100.00
22550;BME280;11441;57.164;-2.120;2023-05-03T07:05:19;102293.28;;;8.95;100.00
22550;BME280;11441;57.164;-2.120;2023-05-03T07:07:46;102300.69;;;9.09;100.00
22550;BME280;11441;57.164;-2.120;2023-05-03T07:10:13;102294.91;;;9.10;100.00
22550;BME280;11441;57.164;-2.120;2023-05-03T07:12:40;102296.53;;;9.25;100.00
22550;BME280;11441;57.164;-2.120;2023-05-03T07:15:07;102297.34;;;9.12;100.00
22550;BME280;11441;57.164;-2.120;2023-05-03T07:17:34;102297.13;;;9.08;100.00
22550;BME280;11441;57.164;-2.120;2023-05-03T07:20:01;102287.75;;;9.23;100.00
22550;BME280;11441;57.164;-2.120;2023-05-03T07:22:30;102285.22;;;9.27;100.00
22550;BME280;11441;57.164;-2.120;2023-05-03T07:24:57;102294.97;;;9.33;100.00
22550;BME280;11441;57.164;-2.120;2023-05-03T07:27:25;102285.22;;;9.63;100.00
22550;BME280;11441;57.164;-2.120;2023-05-03T07:29:52;102296.41;;;9.44;100.00
22550;BME280;11441;57.164;-2.120;2023-05-03T07:32:19;102283.72;;;9.57;100.00
22550;BME280;11441;57.164;-2.120;2023-05-03T07:34:47;102291.47;;;9.91;100.00
22550;BME280;11441;57.164;-2.120;2023-05-03T07:37:14;102299.44;;;9.56;100.00
22550;BME280;11441;57.164;-2.120;2023-05-03T07:42:45;102296.94;;;9.69;100.00
22550;BME280;11441;57.164;-2.120;2023-05-03T07:45:12;102292.34;;;9.28;100.00
22550;BME280;11441;57.164;-2.120;2023-05-03T07:47:39;102294.47;;;9.31;100.00
22550;BME280;11441;57.164;-2.120;2023-05-03T07:50:06;102296.72;;;9.29;100.00
22550;BME280;11441;57.164;-2.120;2023-05-03T07:52:37;102287.13;;;9.40;100.00
22550;BME280;11441;57.164;-2.120;2023-05-03T07:55:05;102290.38;;;9.42;100.00
22550;BME280;11441;57.164;-2.120;2023-05-03T07:57:32;102289.38;;;9.24;100.00
22550;BME280;11441;57.164;-2.120;2023-05-03T07:59:59;102289.59;;;9.28;100.00
22550;BME280;11441;57.164;-2.120;2023-05-03T08:02:26;102278.06;;;9.39;100.00
22550;BME280;11441;57.164;-2.120;2023-05-03T08:04:53;102277.53;;;9.51;100.00
22550;BME280;11441;57.164;-2.120;2023-05-03T08:07:20;102278.75;;;9.45;100.00
22550;BME280;11441;57.164;-2.120;2023-05-03T08:09:47;102277.69;;;9.18;100.00
22550;BME280;11441;57.164;-2.120;2023-05-03T08:12:16;102282.31;;;9.46;100.00
22550;BME280;11441;57.164;-2.120;2023-05-03T08:14:43;102294.75;;;9.43;100.00
22550;BME280;11441;57.164;-2.120;2023-05-03T08:17:09;102294.53;;;9.53;100.00
22550;BME280;11441;57.164;-2.120;2023-05-03T08:19:37;102292.88;;;9.66;100.00
22550;BME280;11441;57.164;-2.120;2023-05-03T08:22:03;102300.66;;;10.09;100.00
22550;BME280;11441;57.164;-2.120;2023-05-03T08:24:31;102299.88;;;10.09;100.00
22550;BME280;11441;57.164;-2.120;2023-05-03T08:26:57;102300.66;;;9.50;100.00
22550;BME280;11441;57.164;-2.120;2023-05-03T08:29:24;102307.34;;;9.94;100.00
22550;BME280;11441;57.164;-2.120;2023-05-03T08:31:53;102297.53;;;10.02;100.00
22550;BME280;11441;57.164;-2.120;2023-05-03T08:34:20;102311.44;;;10.19;100.00
22550;BME280;11441;57.164;-2.120;2023-05-03T08:36:47;102311.75;;;10.18;100.00
22550;BME280;11441;57.164;-2.120;2023-05-03T08:39:13;102295.69;;;10.34;100.00
22550;BME280;11441;57.164;-2.120;2023-05-03T08:41:40;102306.53;;;10.62;100.00
22550;BME280;11441;57.164;-2.120;2023-05-03T08:44:10;102299.75;;;10.36;100.00
22550;BME280;11441;57.164;-2.120;2023-05-03T08:46:37;102303.16;;;10.19;100.00
22550;BME280;11441;57.164;-2.120;2023-05-03T08:49:05;102297.13;;;10.31;100.00
22550;BME280;11441;57.164;-2.120;2023-05-03T08:51:33;102298.53;;;10.29;100.00
22550;BME280;11441;57.164;-2.120;2023-05-03T08:54:00;102303.72;;;10.08;100.00
22550;BME280;11441;57.164;-2.120;2023-05-03T08:56:40;102297.53;;;10.25;100.00
22550;BME280;11441;57.164;-2.120;2023-05-03T08:59:07;102300.97;;;10.53;100.00
22550;BME280;11441;57.164;-2.120;2023-05-03T09:01:35;102301.91;;;10.80;100.00
22550;BME280;11441;57.164;-2.120;2023-05-03T09:04:03;102297.94;;;10.63;100.00
22550;BME280;11441;57.164;-2.120;2023-05-03T09:06:30;102296.19;;;10.67;100.00
22550;BME280;11441;57.164;-2.120;2023-05-03T09:08:59;102302.34;;;10.64;100.00
22550;BME280;11441;57.164;-2.120;2023-05-03T09:11:28;102306.25;;;10.72;100.00
22550;BME280;11441;57.164;-2.120;2023-05-03T09:14:10;102302.13;;;10.52;100.00
22550;BME280;11441;57.164;-2.120;2023-05-03T09:16:55;102304.00;;;10.74;100.00
22550;BME280;11441;57.164;-2.120;2023-05-03T09:19:49;102307.09;;;10.81;100.00
22550;BME280;11441;57.164;-2.120;2023-05-03T09:22:17;102297.00;;;10.68;100.00
22550;BME280;11441;57.164;-2.120;2023-05-03T09:24:55;102306.63;;;10.79;100.00
22550;BME280;11441;57.164;-2.120;2023-05-03T09:27:23;102301.00;;;10.93;100.00
22550;BME280;11441;57.164;-2.120;2023-05-03T09:29:51;102303.44;;;10.94;100.00
22550;BME280;11441;57.164;-2.120;2023-05-03T09:32:19;102298.63;;;10.69;100.00
22550;BME280;11441;57.164;-2.120;2023-05-03T09:34:47;102298.91;;;10.99;100.00
22550;BME280;11441;57.164;-2.120;2023-05-03T09:37:36;102299.09;;;11.11;100.00
22550;BME280;11441;57.164;-2.120;2023-05-03T09:40:06;102295.03;;;11.00;100.00
22550;BME280;11441;57.164;-2.120;2023-05-03T09:42:37;102286.41;;;10.92;100.00
22550;BME280;11441;57.164;-2.120;2023-05-03T09:45:04;102293.50;;;10.85;100.00
22550;BME280;11441;57.164;-2.120;2023-05-03T09:47:48;102298.84;;;11.30;100.00
22550;BME280;11441;57.164;-2.120;2023-05-03T09:50:16;102299.09;;;11.11;100.00
22550;BME280;11441;57.164;-2.120;2023-05-03T09:52:43;102295.53;;;11.10;100.00
22550;BME280;11441;57.164;-2.120;2023-05-03T09:55:10;102302.25;;;10.78;100.00
22550;BME280;11441;57.164;-2.120;2023-05-03T09:57:37;102298.59;;;11.00;100.00
22550;BME280;11441;57.164;-2.120;2023-05-03T10:00:05;102301.44;;;11.35;100.00
22550;BME280;11441;57.164;-2.120;2023-05-03T10:02:37;102309.59;;;11.58;100.00
22550;BME280;11441;57.164;-2.120;2023-05-03T10:05:04;102303.25;;;11.40;100.00
22550;BME280;11441;57.164;-2.120;2023-05-03T10:07:32;102297.84;;;11.17;100.00
22550;BME280;11441;57.164;-2.120;2023-05-03T10:10:00;102308.56;;;11.27;100.00
22550;BME280;11441;57.164;-2.120;2023-05-03T10:12:27;102298.03;;;11.38;100.00
22550;BME280;11441;57.164;-2.120;2023-05-03T10:14:56;102305.72;;;11.76;100.00
22550;BME280;11441;57.164;-2.120;2023-05-03T10:17:31;102307.78;;;11.36;100.00
22550;BME280;11441;57.164;-2.120;2023-05-03T10:20:26;102308.84;;;11.92;100.00
22550;BME280;11441;57.164;-2.120;2023-05-03T10:28:50;102315.38;;;11.30;100.00
22550;BME280;11441;57.164;-2.120;2023-05-03T10:31:42;102309.59;;;11.58;100.00
22550;BME280;11441;57.164;-2.120;2023-05-03T10:34:23;102306.50;;;11.50;100.00
22550;BME280;11441;57.164;-2.120;2023-05-03T10:36:51;102305.97;;;11.22;100.00
22550;BME280;11441;57.164;-2.120;2023-05-03T10:39:19;102312.69;;;11.74;100.00
22550;BME280;11441;57.164;-2.120;2023-05-03T10:42:07;102310.94;;;12.04;100.00
22550;BME280;11441;57.164;-2.120;2023-05-03T10:44:53;102312.84;;;12.38;100.00
22550;BME280;11441;57.164;-2.120;2023-05-03T10:47:39;102307.78;;;12.49;100.00
22550;BME280;11441;57.164;-2.120;2023-05-03T10:55:14;102306.75;;;12.62;100.00
22550;BME280;11441;57.164;-2.120;2023-05-03T10:57:43;102301.09;;;12.59;100.00
22550;BME280;11441;57.164;-2.120;2023-05-03T11:00:21;102298.56;;;12.19;100.00
22550;BME280;11441;57.164;-2.120;2023-05-03T11:05:24;102298.03;;;12.43;100.00
22550;BME280;11441;57.164;-2.120;2023-05-03T11:08:17;102299.31;;;12.54;100.00
22550;BME280;11441;57.164;-2.120;2023-05-03T11:10:48;102303.00;;;12.67;100.00
22550;BME280;11441;57.164;-2.120;2023-05-03T11:13:15;102291.19;;;12.58;100.00
22550;BME280;11441;57.164;-2.120;2023-05-03T11:16:01;102299.31;;;12.54;100.00
22550;BME280;11441;57.164;-2.120;2023-05-03T11:18:29;102286.69;;;12.36;100.00
22550;BME280;11441;57.164;-2.120;2023-05-03T11:21:14;102289.81;;;12.08;100.00
22550;BME280;11441;57.164;-2.120;2023-05-03T11:23:43;102285.56;;;12.28;100.00
22550;BME280;11441;57.164;-2.120;2023-05-03T11:26:10;102277.22;;;12.54;100.00
22550;BME280;11441;57.164;-2.120;2023-05-03T11:28:41;102280.50;;;12.39;100.00
22550;BME280;11441;57.164;-2.120;2023-05-03T11:31:10;102275.88;;;12.60;100.00
22550;BME280;11441;57.164;-2.120;2023-05-03T11:33:38;102280.09;;;12.67;100.00
22550;BME280;11441;57.164;-2.120;2023-05-03T11:36:06;102277.25;;;12.45;100.00
22550;BME280;11441;57.164;-2.120;2023-05-03T11:38:37;102280.50;;;12.39;100.00
22550;BME280;11441;57.164;-2.120;2023-05-03T11:41:30;102277.84;;;12.60;100.00
22550;BME280;11441;57.164;-2.120;2023-05-03T11:43:57;102270.34;;;12.60;100.00
22550;BME280;11441;57.164;-2.120;2023-05-03T11:46:42;102282.56;;;12.59;100.00
22550;BME280;11441;57.164;-2.120;2023-05-03T11:49:16;102281.53;;;12.17;100.00
22550;BME280;11441;57.164;-2.120;2023-05-03T11:51:43;102277.25;;;12.45;100.00
22550;BME280;11441;57.164;-2.120;2023-05-03T11:54:16;102270.00;;;12.71;100.00
22550;BME280;11441;57.164;-2.120;2023-05-03T11:56:56;102280.75;;;13.02;100.00
22550;BME280;11441;57.164;-2.120;2023-05-03T11:59:37;102275.03;;;13.07;100.00
22550;BME280;11441;57.164;-2.120;2023-05-03T12:02:11;102289.38;;;13.00;100.00
22550;BME280;11441;57.164;-2.120;2023-05-03T12:04:39;102283.06;;;13.21;100.00
22550;BME280;11441;57.164;-2.120;2023-05-03T12:07:09;102289.97;;;13.06;100.00
22550;BME280;11441;57.164;-2.120;2023-05-03T12:13:01;102279.00;;;13.27;100.00
22550;BME280;11441;57.164;-2.120;2023-05-03T12:18:01;102277.72;;;12.86;100.00
22550;BME280;11441;57.164;-2.120;2023-05-03T12:20:30;102271.78;;;12.75;100.00
22550;BME280;11441;57.164;-2.120;2023-05-03T12:23:02;102264.28;;;13.06;100.00
22550;BME280;11441;57.164;-2.120;2023-05-03T12:25:31;102262.41;;;12.89;100.00
22550;BME280;11441;57.164;-2.120;2023-05-03T12:28:02;102258.78;;;13.27;100.00
22550;BME280;11441;57.164;-2.120;2023-05-03T12:30:33;102269.84;;;13.56;100.00
22550;BME280;11441;57.164;-2.120;2023-05-03T12:33:00;102263.16;;;13.36;100.00
22550;BME280;11441;57.164;-2.120;2023-05-03T12:35:30;102270.84;;;13.01;100.00
22550;BME280;11441;57.164;-2.120;2023-05-03T12:38:00;102261.19;;;13.07;100.00
22550;BME280;11441;57.164;-2.120;2023-05-03T12:40:29;102259.41;;;13.41;100.00
22550;BME280;11441;57.164;-2.120;2023-05-03T12:42:59;102253.59;;;13.76;100.00
22550;BME280;11441;57.164;-2.120;2023-05-03T12:45:27;102258.34;;;13.67;100.00
22550;BME280;11441;57.164;-2.120;2023-05-03T12:48:00;102259.84;;;13.85;100.00
22550;BME280;11441;57.164;-2.120;2023-05-03T12:50:28;102256.81;;;13.78;100.00
22550;BME280;11441;57.164;-2.120;2023-05-03T12:52:57;102259.88;;;13.98;100.00
22550;BME280;11441;57.164;-2.120;2023-05-03T12:55:28;102241.13;;;13.82;100.00
22550;BME280;11441;57.164;-2.120;2023-05-03T12:58:05;102263.16;;;13.79;100.00
22550;BME280;11441;57.164;-2.120;2023-05-03T13:00:52;102250.25;;;13.62;100.00
22550;BME280;11441;57.164;-2.120;2023-05-03T13:03:23;102263.38;;;13.52;100.00
22550;BME280;11441;57.164;-2.120;2023-05-03T13:05:59;102263.91;;;13.67;100.00
22550;BME280;11441;57.164;-2.120;2023-05-03T13:08:43;102262.44;;;13.69;100.00
22550;BME280;11441;57.164;-2.120;2023-05-03T13:11:16;102245.50;;;13.50;100.00
22550;BME280;11441;57.164;-2.120;2023-05-03T13:13:45;102249.78;;;13.38;100.00
22550;BME280;11441;57.164;-2.120;2023-05-03T13:16:12;102254.47;;;13.17;100.00
22550;BME280;11441;57.164;-2.120;2023-05-03T13:18:40;102254.19;;;13.10;100.00
22550;BME280;11441;57.164;-2.120;2023-05-03T13:21:09;102265.19;;;12.89;100.00
22550;BME280;11441;57.164;-2.120;2023-05-03T13:23:36;102256.63;;;12.73;100.00